createdAt,value
2023-05-04T00:00:06.250Z,101699.28
2023-05-04T00:02:03.692Z,101699.28
2023-05-04T00:02:33.064Z,101663.31
2023-05-04T00:04:59.662Z,101705.31
2023-05-04T00:07:03.676Z,101705.31
2023-05-04T00:07:26.286Z,101708.75
2023-05-04T00:09:52.668Z,101713.06
2023-05-04T00:12:03.659Z,101713.06
2023-05-04T00:12:19.085Z,101699.13
2023-05-04T00:14:45.484Z,101656.16
2023-05-04T00:17:03.621Z,101656.16
2023-05-04T00:17:13.969Z,101679.47
2023-05-04T00:19:42.281Z,101657.16
2023-05-04T00:22:03.635Z,101657.16
2023-05-04T00:22:09.104Z,101683.91
2023-05-04T00:24:35.633Z,101678.75
2023-05-04T00:27:02.438Z,101599.78
2023-05-04T00:27:03.629Z,101599.78
2023-05-04T00:29:29.237Z,101601.69
2023-05-04T00:31:56.162Z,101605.56
2023-05-04T00:32:03.810Z,101605.56
2023-05-04T00:34:22.900Z,101620.69
2023-05-04T00:36:49.615Z,101636.16
2023-05-04T00:37:03.660Z,101636.16
2023-05-04T00:39:16.346Z,101589.72
2023-05-04T00:41:42.726Z,101533.22
2023-05-04T00:42:03.658Z,101533.22
2023-05-04T00:44:09.273Z,101660.09
2023-05-04T00:46:36.929Z,101634.34
2023-05-04T00:47:03.714Z,101634.34
2023-05-04T00:49:03.901Z,101652.38
2023-05-04T00:51:30.780Z,101571.75
2023-05-04T00:52:03.660Z,101571.75
2023-05-04T00:53:58.153Z,101552.31
2023-05-04T00:56:25.237Z,101630.22
2023-05-04T00:57:03.653Z,101630.22
2023-05-04T00:58:54.366Z,101649.22
2023-05-04T01:01:22.263Z,101595.13
2023-05-04T01:02:03.645Z,101595.13
2023-05-04T01:03:53.729Z,101627.81
2023-05-04T01:06:45.266Z,101647.59
2023-05-04T01:07:03.690Z,101647.59
2023-05-04T01:09:22.492Z,101642.44
2023-05-04T01:11:58.151Z,101577.16
2023-05-04T01:12:03.669Z,101577.16
2023-05-04T01:14:25.500Z,101542.03
2023-05-04T01:16:57.884Z,101597.97
2023-05-04T01:17:03.817Z,101597.97
2023-05-04T01:19:24.934Z,101603.78
2023-05-04T01:21:51.318Z,101629.53
2023-05-04T01:22:03.640Z,101629.53
2023-05-04T01:24:17.756Z,101621.16
2023-05-04T01:26:46.938Z,101628.72
2023-05-04T01:27:03.676Z,101628.72
2023-05-04T01:29:19.443Z,101627.81
2023-05-04T01:31:46.717Z,101626.13
2023-05-04T01:32:03.840Z,101626.13
2023-05-04T01:34:14.301Z,101629.53
2023-05-04T01:36:41.679Z,101635.53
2023-05-04T01:37:03.660Z,101635.53
2023-05-04T01:39:08.470Z,101525.66
2023-05-04T01:41:36.098Z,101631.19
2023-05-04T01:42:03.688Z,101631.19
2023-05-04T01:44:03.773Z,101397.78
2023-05-04T01:46:30.313Z,101580.56
2023-05-04T01:47:03.691Z,101580.56
2023-05-04T01:48:56.843Z,101630.38
2023-05-04T01:51:23.211Z,101619.28
2023-05-04T01:52:03.743Z,101619.28
2023-05-04T01:53:49.599Z,101632.97
2023-05-04T01:56:15.962Z,101629.56
2023-05-04T01:57:03.680Z,101629.56
2023-05-04T01:58:42.341Z,101627.00
2023-05-04T02:01:09.288Z,101561.78
2023-05-04T02:02:03.820Z,101561.78
2023-05-04T02:03:35.789Z,101631.47
2023-05-04T02:06:02.231Z,101619.44
2023-05-04T02:07:03.660Z,101619.44
2023-05-04T02:08:28.697Z,101579.06
2023-05-04T02:10:55.020Z,101573.00
2023-05-04T02:12:03.673Z,101573.00
2023-05-04T02:13:22.145Z,101626.31
2023-05-04T02:15:48.627Z,101596.19
2023-05-04T02:17:03.676Z,101596.19
2023-05-04T02:18:15.006Z,101537.03
2023-05-04T02:20:41.386Z,101619.47
2023-05-04T02:22:03.692Z,101619.47
2023-05-04T02:23:07.759Z,101624.63
2023-05-04T02:25:34.207Z,101614.16
2023-05-04T02:27:03.649Z,101614.16
2023-05-04T02:28:00.856Z,101597.00
2023-05-04T02:30:27.233Z,101609.00
2023-05-04T02:32:03.795Z,101609.00
2023-05-04T02:32:53.647Z,101562.81
2023-05-04T02:35:20.337Z,101600.47
2023-05-04T02:37:05.840Z,101600.47
2023-05-04T02:37:46.830Z,101572.91
2023-05-04T02:40:13.560Z,101595.13
2023-05-04T02:42:03.723Z,101595.13
2023-05-04T02:42:39.945Z,101582.19
2023-05-04T02:45:07.620Z,101275.03
2023-05-04T02:47:03.686Z,101275.03
2023-05-04T02:47:34.085Z,101559.72
2023-05-04T02:50:00.746Z,101590.66
2023-05-04T02:52:03.789Z,101590.66
2023-05-04T02:52:27.121Z,101488.38
2023-05-04T02:54:53.516Z,101573.44
2023-05-04T02:57:03.713Z,101573.44
2023-05-04T02:57:19.981Z,101558.91
2023-05-04T02:59:46.667Z,101471.44
2023-05-04T03:02:03.698Z,101471.44
2023-05-04T03:02:13.176Z,101579.81
2023-05-04T03:04:39.645Z,101576.44
2023-05-04T03:07:03.664Z,101576.44
2023-05-04T03:07:06.595Z,101575.72
2023-05-04T03:09:32.960Z,101574.09
2023-05-04T03:11:59.303Z,101571.75
2023-05-04T03:12:03.681Z,101571.75
2023-05-04T03:14:26.300Z,101517.75
2023-05-04T03:16:52.762Z,101568.41
2023-05-04T03:17:03.687Z,101568.41
2023-05-04T03:19:19.900Z,101571.91
2023-05-04T03:21:46.579Z,101494.69
2023-05-04T03:22:03.658Z,101494.69
2023-05-04T03:24:13.327Z,101556.66
2023-05-04T03:26:39.848Z,101572.19
2023-05-04T03:27:03.686Z,101572.19
2023-05-04T03:29:06.277Z,101564.50
2023-05-04T03:31:32.679Z,101560.16
2023-05-04T03:32:03.835Z,101560.16
2023-05-04T03:33:59.070Z,101559.31
2023-05-04T03:36:25.574Z,101545.66
2023-05-04T03:37:03.690Z,101545.66
2023-05-04T03:38:51.971Z,101496.75
2023-05-04T03:41:18.440Z,101546.53
2023-05-04T03:42:03.724Z,101546.53
2023-05-04T03:43:44.852Z,101495.06
2023-05-04T03:46:11.516Z,101558.69
2023-05-04T03:47:03.660Z,101558.69
2023-05-04T03:48:37.946Z,101552.72
2023-05-04T03:51:04.622Z,101558.78
2023-05-04T03:52:03.729Z,101558.78
2023-05-04T03:53:31.041Z,101549.34
2023-05-04T03:55:57.450Z,101563.13
2023-05-04T03:57:03.666Z,101563.13
2023-05-04T03:58:23.757Z,101510.75
2023-05-04T04:00:50.084Z,101495.28
2023-05-04T04:02:03.733Z,101495.28
2023-05-04T04:03:16.689Z,101569.13
2023-05-04T04:05:43.418Z,101575.25
2023-05-04T04:07:03.659Z,101575.25
2023-05-04T04:08:12.373Z,101575.25
2023-05-04T04:10:38.719Z,101577.78
2023-05-04T04:12:03.699Z,101577.78
2023-05-04T04:13:05.187Z,101576.91
2023-05-04T04:15:31.581Z,101578.59
2023-05-04T04:17:03.677Z,101578.59
2023-05-04T04:17:58.093Z,101533.97
2023-05-04T04:20:24.491Z,101574.19
2023-05-04T04:22:03.659Z,101574.19
2023-05-04T04:22:51.931Z,101524.41
2023-05-04T04:25:18.284Z,101474.53
2023-05-04T04:27:03.676Z,101474.53
2023-05-04T04:27:44.621Z,101550.03
2023-05-04T04:30:12.180Z,101577.41
2023-05-04T04:32:03.968Z,101577.41
2023-05-04T04:32:38.654Z,101585.88
2023-05-04T04:35:06.755Z,101536.91
2023-05-04T04:37:03.644Z,101536.91
2023-05-04T04:37:33.090Z,101578.06
2023-05-04T04:39:59.448Z,101606.22
2023-05-04T04:42:03.666Z,101606.22
2023-05-04T04:42:26.189Z,101598.25
2023-05-04T04:44:54.728Z,101603.16
2023-05-04T04:47:03.795Z,101603.16
2023-05-04T04:47:21.089Z,101419.88
2023-05-04T04:49:47.712Z,101606.09
2023-05-04T04:52:03.716Z,101606.09
2023-05-04T04:52:14.203Z,101551.09
2023-05-04T04:54:40.704Z,101607.16
2023-05-04T04:57:03.694Z,101607.16
2023-05-04T04:57:10.254Z,101551.47
2023-05-04T04:59:38.086Z,101498.59
2023-05-04T05:02:04.488Z,101575.41
2023-05-04T05:02:04.676Z,101575.41
2023-05-04T05:04:31.216Z,101575.53
2023-05-04T05:06:57.660Z,101574.22
2023-05-04T05:07:03.665Z,101574.22
2023-05-04T05:09:24.145Z,101579.41
2023-05-04T05:11:50.686Z,101581.34
2023-05-04T05:12:03.683Z,101581.34
2023-05-04T05:14:17.017Z,101561.41
2023-05-04T05:16:43.479Z,101542.81
2023-05-04T05:17:03.732Z,101542.81
2023-05-04T05:19:09.881Z,101462.66
2023-05-04T05:21:36.329Z,101457.38
2023-05-04T05:22:03.702Z,101457.38
2023-05-04T05:24:02.907Z,101382.03
2023-05-04T05:26:29.464Z,101235.75
2023-05-04T05:27:03.681Z,101235.75
2023-05-04T05:28:56.011Z,101228.84
2023-05-04T05:31:22.450Z,101042.47
2023-05-04T05:32:04.849Z,101042.47
2023-05-04T05:33:48.910Z,101102.03
2023-05-04T05:36:15.311Z,101124.44
2023-05-04T05:37:03.668Z,101124.44
2023-05-04T05:38:41.849Z,101126.59
2023-05-04T05:41:09.729Z,101137.06
2023-05-04T05:42:03.714Z,101137.06
2023-05-04T05:43:38.413Z,101128.38
2023-05-04T05:46:06.458Z,101100.81
2023-05-04T05:47:03.706Z,101100.81
2023-05-04T05:48:33.749Z,101094.88
2023-05-04T05:51:00.266Z,100989.91
2023-05-04T05:52:03.707Z,100989.91
2023-05-04T05:53:26.865Z,101135.25
2023-05-04T05:55:53.265Z,101119.25
2023-05-04T05:57:03.720Z,101119.25
2023-05-04T05:58:19.631Z,101051.78
2023-05-04T06:00:46.295Z,101099.28
2023-05-04T06:02:03.690Z,101099.28
2023-05-04T06:03:12.746Z,101090.88
2023-05-04T06:05:39.178Z,101083.31
2023-05-04T06:07:03.680Z,101083.31
2023-05-04T06:08:05.637Z,101062.00
2023-05-04T06:10:32.128Z,100757.13
2023-05-04T06:12:03.722Z,100757.13
2023-05-04T06:12:58.549Z,101098.63
2023-05-04T06:15:24.932Z,101022.34
2023-05-04T06:17:03.695Z,101022.34
2023-05-04T06:17:51.420Z,101053.09
2023-05-04T06:20:18.079Z,101031.06
2023-05-04T06:22:03.700Z,101031.06
2023-05-04T06:22:44.491Z,100994.38
2023-05-04T06:25:11.508Z,101071.66
2023-05-04T06:27:03.715Z,101071.66
2023-05-04T06:27:37.891Z,101025.75
2023-05-04T06:30:05.259Z,101039.25
2023-05-04T06:32:03.779Z,101039.25
2023-05-04T06:32:32.136Z,100949.34
2023-05-04T06:34:59.433Z,101014.78
2023-05-04T06:37:03.724Z,101014.78
2023-05-04T06:37:26.674Z,101013.53
2023-05-04T06:39:53.124Z,100964.88
2023-05-04T06:42:03.719Z,100964.88
2023-05-04T06:42:19.494Z,101086.06
2023-05-04T06:44:45.951Z,100958.41
2023-05-04T06:47:03.698Z,100958.41
2023-05-04T06:47:12.482Z,101007.78
2023-05-04T06:49:38.836Z,100994.91
2023-05-04T06:52:03.688Z,100994.91
2023-05-04T06:52:05.438Z,100874.25
2023-05-04T06:54:32.463Z,100944.19
2023-05-04T06:56:58.852Z,101007.03
2023-05-04T06:57:03.855Z,101007.03
2023-05-04T06:59:25.354Z,100993.53
2023-05-04T07:01:51.746Z,100979.50
2023-05-04T07:02:03.713Z,100979.50
2023-05-04T07:04:21.634Z,100962.31
2023-05-04T07:06:48.157Z,100990.88
2023-05-04T07:07:03.735Z,100990.88
2023-05-04T07:09:17.832Z,101035.28
2023-05-04T07:11:44.269Z,100972.50
2023-05-04T07:12:03.707Z,100972.50
2023-05-04T07:14:11.391Z,100849.03
2023-05-04T07:16:38.229Z,100978.16
2023-05-04T07:17:03.708Z,100978.16
2023-05-04T07:19:04.615Z,100942.00
2023-05-04T07:21:31.478Z,100994.13
2023-05-04T07:22:03.693Z,100994.13
2023-05-04T07:23:57.864Z,100936.91
2023-05-04T07:26:24.275Z,100943.69
2023-05-04T07:27:03.690Z,100943.69
2023-05-04T07:28:50.641Z,100956.97
2023-05-04T07:31:17.115Z,100914.72
2023-05-04T07:32:03.723Z,100914.72
2023-05-04T07:33:43.578Z,100927.34
2023-05-04T07:36:10.049Z,100907.94
2023-05-04T07:37:03.753Z,100907.94
2023-05-04T07:38:36.965Z,100958.44
2023-05-04T07:41:03.402Z,101010.91
2023-05-04T07:42:03.753Z,101010.91
2023-05-04T07:43:29.892Z,100997.16
2023-05-04T07:45:56.546Z,100941.84
2023-05-04T07:47:03.686Z,100941.84
2023-05-04T07:48:24.707Z,101000.91
2023-05-04T07:50:53.689Z,100914.13
2023-05-04T07:52:03.722Z,100914.13
2023-05-04T07:53:20.804Z,101043.78
2023-05-04T07:55:47.888Z,101026.84
2023-05-04T07:57:03.737Z,101026.84
2023-05-04T07:58:15.447Z,101027.72
2023-05-04T08:00:41.908Z,101040.56
2023-05-04T08:02:03.785Z,101040.56
2023-05-04T08:03:08.424Z,101046.19
2023-05-04T08:05:34.800Z,100992.94
2023-05-04T08:07:03.740Z,100992.94
2023-05-04T08:08:01.284Z,101016.00
2023-05-04T08:10:29.086Z,101038.66
2023-05-04T08:12:03.720Z,101038.66
2023-05-04T08:12:55.577Z,101008.81
2023-05-04T08:15:22.202Z,101055.81
2023-05-04T08:17:03.700Z,101055.81
2023-05-04T08:17:48.650Z,101123.25
2023-05-04T08:20:15.227Z,101091.41
2023-05-04T08:22:03.766Z,101091.41
2023-05-04T08:22:41.604Z,100956.16
2023-05-04T08:25:09.394Z,101053.78
2023-05-04T08:27:07.861Z,101053.78
2023-05-04T08:27:35.754Z,101063.09
2023-05-04T08:30:02.118Z,100935.94
2023-05-04T08:32:03.849Z,100935.94
2023-05-04T08:32:29.974Z,101102.75
2023-05-04T08:34:57.380Z,101098.84
2023-05-04T08:37:03.770Z,101098.84
2023-05-04T08:37:23.760Z,101108.25
2023-05-04T08:39:50.762Z,100963.84
2023-05-04T08:42:03.732Z,100963.84
2023-05-04T08:42:31.166Z,101056.84
2023-05-04T08:44:58.371Z,101077.13
2023-05-04T08:47:03.739Z,101077.13
2023-05-04T08:47:26.487Z,101097.75
2023-05-04T08:49:57.000Z,101113.38
2023-05-04T08:52:03.756Z,101113.38
2023-05-04T08:52:24.691Z,101048.63
2023-05-04T08:55:00.594Z,101095.75
2023-05-04T08:57:03.735Z,101095.75
2023-05-04T08:57:27.380Z,101147.50
2023-05-04T08:59:55.471Z,101151.03
2023-05-04T09:02:03.952Z,101151.03
2023-05-04T09:02:24.078Z,101145.63
2023-05-04T09:04:51.496Z,101195.16
2023-05-04T09:07:03.721Z,101195.16
2023-05-04T09:07:22.017Z,101128.94
2023-05-04T09:09:50.880Z,101191.31
2023-05-04T09:12:03.748Z,101191.31
2023-05-04T09:12:18.089Z,101205.72
2023-05-04T09:14:46.431Z,101132.94
2023-05-04T09:17:03.847Z,101132.94
2023-05-04T09:17:16.380Z,101130.75
2023-05-04T09:19:45.923Z,101117.25
2023-05-04T09:22:03.725Z,101117.25
2023-05-04T09:22:17.234Z,101155.66
2023-05-04T09:24:44.193Z,101169.06
2023-05-04T09:27:03.733Z,101169.06
2023-05-04T09:27:11.896Z,101177.91
2023-05-04T09:29:40.418Z,101161.84
2023-05-04T09:32:03.726Z,101161.84
2023-05-04T09:32:12.250Z,101145.63
2023-05-04T09:34:53.289Z,101151.38
2023-05-04T09:37:03.853Z,101151.38
2023-05-04T09:37:21.268Z,101121.47
2023-05-04T09:40:00.137Z,101170.63
2023-05-04T09:42:03.724Z,101170.63
2023-05-04T09:42:26.967Z,101229.22
2023-05-04T09:45:01.747Z,101143.75
2023-05-04T09:47:03.733Z,101143.75
2023-05-04T09:47:40.006Z,101215.25
2023-05-04T09:50:20.338Z,101170.25
2023-05-04T09:52:03.760Z,101170.25
2023-05-04T09:52:48.718Z,101186.28
2023-05-04T09:55:17.651Z,101128.91
2023-05-04T09:57:03.755Z,101128.91
2023-05-04T09:57:45.585Z,101116.00
2023-05-04T10:00:14.118Z,101132.97
2023-05-04T10:02:14.431Z,101132.97
2023-05-04T10:02:40.711Z,101138.53
2023-05-04T10:05:09.164Z,101160.75
2023-05-04T10:07:03.724Z,101160.75
2023-05-04T10:07:36.212Z,101063.81
2023-05-04T10:10:03.539Z,101112.28
2023-05-04T10:12:03.730Z,101112.28
2023-05-04T10:12:30.001Z,101132.72
2023-05-04T10:14:56.891Z,101100.34
2023-05-04T10:17:03.722Z,101100.34
2023-05-04T10:17:51.246Z,101118.69
2023-05-04T10:20:29.944Z,101092.13
2023-05-04T10:22:03.749Z,101092.13
2023-05-04T10:23:12.819Z,101083.69
2023-05-04T10:25:57.198Z,101062.59
2023-05-04T10:27:03.764Z,101062.59
2023-05-04T10:28:40.318Z,101137.50
2023-05-04T10:31:09.241Z,101090.84
2023-05-04T10:32:03.845Z,101090.84
2023-05-04T10:33:40.484Z,101085.41
2023-05-04T10:36:07.920Z,101111.56
2023-05-04T10:37:03.840Z,101111.56
2023-05-04T10:38:35.721Z,101073.59
2023-05-04T10:41:14.414Z,101049.81
2023-05-04T10:42:03.788Z,101049.81
2023-05-04T10:43:42.402Z,101009.66
2023-05-04T10:46:22.645Z,101129.28
2023-05-04T10:47:03.739Z,101129.28
2023-05-04T10:48:50.216Z,101110.69
2023-05-04T10:51:32.667Z,101041.94
2023-05-04T10:52:03.745Z,101041.94
2023-05-04T10:54:02.231Z,101071.97
2023-05-04T10:56:28.668Z,101107.25
2023-05-04T10:57:03.802Z,101107.25
2023-05-04T10:58:55.337Z,100980.28
2023-05-04T11:01:24.292Z,101071.31
2023-05-04T11:02:03.836Z,101071.31
2023-05-04T11:03:52.416Z,101042.97
2023-05-04T11:06:24.060Z,101006.47
2023-05-04T11:07:03.743Z,101006.47
2023-05-04T11:09:02.266Z,101035.28
2023-05-04T11:11:28.921Z,101078.50
2023-05-04T11:12:03.824Z,101078.50
2023-05-04T11:13:56.632Z,100851.16
2023-05-04T11:16:24.552Z,100985.41
2023-05-04T11:17:05.372Z,100985.41
2023-05-04T11:18:53.573Z,101000.91
2023-05-04T11:21:27.097Z,101055.00
2023-05-04T11:22:03.753Z,101055.00
2023-05-04T11:24:00.390Z,101028.00
2023-05-04T11:26:28.442Z,100938.91
2023-05-04T11:27:03.722Z,100938.91
2023-05-04T11:28:54.889Z,100906.09
2023-05-04T11:31:21.486Z,100859.75
2023-05-04T11:32:03.764Z,100859.75
2023-05-04T11:33:48.601Z,100817.50
2023-05-04T11:36:17.691Z,100831.16
2023-05-04T11:37:03.860Z,100831.16
2023-05-04T11:38:44.167Z,100748.66
2023-05-04T11:41:12.562Z,100906.16
2023-05-04T11:42:03.774Z,100906.16
2023-05-04T11:43:42.222Z,100919.78
2023-05-04T11:46:09.734Z,100899.81
2023-05-04T11:47:03.761Z,100899.81
2023-05-04T11:48:36.518Z,100852.66
2023-05-04T11:51:04.298Z,100776.94
2023-05-04T11:52:03.794Z,100776.94
2023-05-04T11:53:41.106Z,100856.06
2023-05-04T11:56:10.743Z,100822.69
2023-05-04T11:57:03.768Z,100822.69
2023-05-04T11:58:37.449Z,100851.88
2023-05-04T12:01:04.793Z,100844.41
2023-05-04T12:02:03.835Z,100844.41
2023-05-04T12:03:50.993Z,100849.13
2023-05-04T12:06:19.759Z,100780.13
2023-05-04T12:07:03.751Z,100780.13
2023-05-04T12:08:46.106Z,100775.16
2023-05-04T12:11:25.330Z,100848.78
2023-05-04T12:12:03.787Z,100848.78
2023-05-04T12:14:11.872Z,100896.09
2023-05-04T12:16:38.749Z,100749.69
2023-05-04T12:17:03.759Z,100749.69
2023-05-04T12:19:07.655Z,100785.56
2023-05-04T12:21:35.205Z,100901.88
2023-05-04T12:22:03.781Z,100901.88
2023-05-04T12:24:03.288Z,100869.81
2023-05-04T12:26:29.899Z,100840.81
2023-05-04T12:27:03.760Z,100840.81
2023-05-04T12:28:56.460Z,100792.13
2023-05-04T12:31:25.406Z,100865.44
2023-05-04T12:32:03.860Z,100865.44
2023-05-04T12:33:52.217Z,100862.88
2023-05-04T12:36:18.810Z,100796.91
2023-05-04T12:37:03.777Z,100796.91
2023-05-04T12:38:46.053Z,100780.31
2023-05-04T12:41:12.614Z,100810.31
2023-05-04T12:42:03.756Z,100810.31
2023-05-04T12:43:39.066Z,100769.75
2023-05-04T12:46:05.796Z,100786.81
2023-05-04T12:47:03.757Z,100786.81
2023-05-04T12:48:32.904Z,100708.25
2023-05-04T12:51:00.869Z,100816.66
2023-05-04T12:52:03.769Z,100816.66
2023-05-04T12:53:29.846Z,100777.78
2023-05-04T12:55:56.414Z,100756.13
2023-05-04T12:57:03.794Z,100756.13
2023-05-04T12:58:22.783Z,100699.84
2023-05-04T13:00:49.475Z,100793.38
2023-05-04T13:02:03.843Z,100793.38
2023-05-04T13:03:17.886Z,100690.28
2023-05-04T13:05:46.260Z,100639.19
2023-05-04T13:07:03.800Z,100639.19
2023-05-04T13:08:12.909Z,100726.69
2023-05-04T13:10:41.969Z,100766.38
2023-05-04T13:12:03.767Z,100766.38
2023-05-04T13:13:08.520Z,100753.84
2023-05-04T13:15:34.978Z,100691.66
2023-05-04T13:17:03.769Z,100691.66
2023-05-04T13:18:01.692Z,100729.88
2023-05-04T13:20:28.134Z,100744.94
2023-05-04T13:22:03.780Z,100744.94
2023-05-04T13:22:58.221Z,100713.09
2023-05-04T13:25:25.590Z,100763.53
2023-05-04T13:27:03.781Z,100763.53
2023-05-04T13:27:52.574Z,100751.00
2023-05-04T13:30:20.510Z,100669.53
2023-05-04T13:32:03.852Z,100669.53
2023-05-04T13:32:46.947Z,100796.41
2023-05-04T13:35:15.758Z,100742.25
2023-05-04T13:37:03.874Z,100742.25
2023-05-04T13:37:42.274Z,100774.59
2023-05-04T13:40:09.445Z,100763.22
2023-05-04T13:42:03.765Z,100763.22
2023-05-04T13:42:37.322Z,100649.44
2023-05-04T13:45:04.437Z,100699.88
2023-05-04T13:47:03.888Z,100699.88
2023-05-04T13:47:31.190Z,100782.47
2023-05-04T13:49:57.916Z,100642.75
2023-05-04T13:52:03.780Z,100642.75
2023-05-04T13:52:24.399Z,100778.13
2023-05-04T13:54:50.770Z,100777.63
2023-05-04T13:57:03.762Z,100777.63
2023-05-04T13:57:17.223Z,100737.38
2023-05-04T13:59:54.634Z,100692.34
2023-05-04T14:02:03.923Z,100692.34
2023-05-04T14:02:25.072Z,100679.91
2023-05-04T14:04:51.540Z,100670.88
2023-05-04T14:07:03.785Z,100670.88
2023-05-04T14:07:18.170Z,100649.91
2023-05-04T14:09:44.614Z,100689.47
2023-05-04T14:12:03.786Z,100689.47
2023-05-04T14:12:11.036Z,100736.22
2023-05-04T14:14:37.388Z,100692.13
2023-05-04T14:17:04.095Z,100670.69
2023-05-04T14:17:04.803Z,100670.69
2023-05-04T14:19:30.510Z,100635.50
2023-05-04T14:21:56.965Z,100699.03
2023-05-04T14:22:03.763Z,100699.03
2023-05-04T14:24:25.250Z,100445.53
2023-05-04T14:26:51.792Z,100568.53
2023-05-04T14:27:03.791Z,100568.53
2023-05-04T14:29:18.185Z,100646.88
2023-05-04T14:31:44.629Z,100607.34
2023-05-04T14:32:03.941Z,100607.34
2023-05-04T14:34:12.327Z,100654.19
2023-05-04T14:36:38.674Z,100599.34
2023-05-04T14:37:03.808Z,100599.34
2023-05-04T14:39:05.149Z,100615.47
2023-05-04T14:41:33.678Z,100580.53
2023-05-04T14:42:06.216Z,100580.53
2023-05-04T14:44:00.441Z,100515.34
2023-05-04T14:46:29.322Z,100629.25
2023-05-04T14:47:05.477Z,100629.25
2023-05-04T14:48:56.214Z,100527.25
2023-05-04T14:51:23.868Z,100647.00
2023-05-04T14:52:03.828Z,100647.00
2023-05-04T14:53:50.406Z,100552.34
2023-05-04T14:56:16.791Z,100525.25
2023-05-04T14:57:03.764Z,100525.25
2023-05-04T14:58:43.723Z,100484.56
2023-05-04T15:01:10.270Z,100516.97
2023-05-04T15:02:03.916Z,100516.97
2023-05-04T15:03:38.724Z,100478.34
2023-05-04T15:06:06.272Z,100487.81
2023-05-04T15:07:03.793Z,100487.81
2023-05-04T15:08:32.733Z,100577.63
2023-05-04T15:10:59.275Z,100456.78
2023-05-04T15:12:03.799Z,100456.78
2023-05-04T15:13:26.255Z,100514.84
2023-05-04T15:15:52.978Z,100524.22
2023-05-04T15:17:03.797Z,100524.22
2023-05-04T15:18:21.119Z,100434.38
2023-05-04T15:20:47.550Z,100431.72
2023-05-04T15:22:03.834Z,100431.72
2023-05-04T15:23:14.112Z,100466.72
2023-05-04T15:25:41.066Z,100416.28
2023-05-04T15:27:03.857Z,100416.28
2023-05-04T15:28:11.168Z,100450.03
2023-05-04T15:30:41.558Z,100335.72
2023-05-04T15:32:03.831Z,100335.72
2023-05-04T15:33:08.467Z,100442.66
2023-05-04T15:35:36.363Z,100437.28
2023-05-04T15:37:03.782Z,100437.28
2023-05-04T15:38:03.408Z,100353.31
2023-05-04T15:40:29.941Z,100485.19
2023-05-04T15:42:03.893Z,100485.19
2023-05-04T15:42:56.453Z,100478.19
2023-05-04T15:45:23.053Z,100498.63
2023-05-04T15:47:03.917Z,100498.63
2023-05-04T15:47:49.528Z,100533.50
2023-05-04T15:50:15.949Z,100374.38
2023-05-04T15:52:03.810Z,100374.38
2023-05-04T15:52:42.426Z,100446.47
2023-05-04T15:55:24.401Z,100482.44
2023-05-04T15:57:03.799Z,100482.44
2023-05-04T15:57:53.736Z,100379.34
2023-05-04T16:00:21.191Z,100485.41
2023-05-04T16:02:03.915Z,100485.41
2023-05-04T16:02:48.016Z,100524.78
2023-05-04T16:05:14.565Z,100511.69
2023-05-04T16:07:03.816Z,100511.69
2023-05-04T16:07:40.950Z,100538.50
2023-05-04T16:10:08.398Z,100442.44
2023-05-04T16:12:03.810Z,100442.44
2023-05-04T16:12:35.172Z,100471.16
2023-05-04T16:15:01.691Z,100489.41
2023-05-04T16:17:03.911Z,100489.41
2023-05-04T16:17:29.033Z,100417.84
2023-05-04T16:19:55.898Z,100467.97
2023-05-04T16:22:03.818Z,100467.97
2023-05-04T16:22:22.257Z,100388.63
2023-05-04T16:24:48.796Z,100460.34
2023-05-04T16:27:03.799Z,100460.34
2023-05-04T16:27:15.330Z,100436.44
2023-05-04T16:29:41.720Z,100344.16
2023-05-04T16:32:03.906Z,100344.16
2023-05-04T16:32:08.378Z,100417.81
2023-05-04T16:34:37.460Z,100426.91
2023-05-04T16:37:04.003Z,100407.59
2023-05-04T16:37:04.160Z,100407.59
2023-05-04T16:39:31.306Z,100412.53
2023-05-04T16:41:58.546Z,100316.19
2023-05-04T16:42:03.792Z,100316.19
2023-05-04T16:44:27.406Z,100357.22
2023-05-04T16:46:54.418Z,100339.53
2023-05-04T16:47:03.792Z,100339.53
2023-05-04T16:49:24.154Z,100361.78
2023-05-04T16:51:56.044Z,100332.91
2023-05-04T16:52:03.854Z,100332.91
2023-05-04T16:54:24.269Z,100359.22
2023-05-04T16:56:52.039Z,100337.16
2023-05-04T16:57:03.846Z,100337.16
2023-05-04T16:59:18.592Z,100370.25
2023-05-04T17:01:47.525Z,100417.41
2023-05-04T17:02:03.945Z,100417.41
2023-05-04T17:04:13.984Z,100394.31
2023-05-04T17:06:40.486Z,100428.28
2023-05-04T17:07:03.785Z,100428.28
2023-05-04T17:09:07.121Z,100431.94
2023-05-04T17:11:34.568Z,100466.72
2023-05-04T17:12:03.933Z,100466.72
2023-05-04T17:14:01.356Z,100477.00
2023-05-04T17:16:27.724Z,100452.84
2023-05-04T17:17:03.805Z,100452.84
2023-05-04T17:18:54.171Z,100420.69
2023-05-04T17:21:20.754Z,100477.44
2023-05-04T17:22:03.804Z,100477.44
2023-05-04T17:23:47.247Z,100458.53
2023-05-04T17:26:13.741Z,100467.91
2023-05-04T17:27:03.835Z,100467.91
2023-05-04T17:28:42.306Z,100426.72
2023-05-04T17:31:24.235Z,100485.59
2023-05-04T17:32:03.880Z,100485.59
2023-05-04T17:33:50.806Z,100466.84
2023-05-04T17:36:17.251Z,100433.56
2023-05-04T17:37:03.852Z,100433.56
2023-05-04T17:38:43.643Z,100507.38
2023-05-04T17:41:10.361Z,100430.78
2023-05-04T17:42:04.888Z,100430.78
2023-05-04T17:43:37.124Z,100500.28
2023-05-04T17:46:03.704Z,100525.72
2023-05-04T17:47:05.558Z,100525.72
2023-05-04T17:48:32.811Z,100526.88
2023-05-04T17:50:59.992Z,100488.28
2023-05-04T17:52:03.853Z,100488.28
2023-05-04T17:53:29.722Z,100467.16
2023-05-04T17:55:56.239Z,100535.69
2023-05-04T17:57:03.807Z,100535.69
2023-05-04T17:58:22.766Z,100542.69
2023-05-04T18:00:52.007Z,100560.09
2023-05-04T18:02:03.959Z,100560.09
2023-05-04T18:03:19.644Z,100577.94
2023-05-04T18:05:46.508Z,100584.94
2023-05-04T18:07:03.836Z,100584.94
2023-05-04T18:08:13.443Z,100556.88
2023-05-04T18:10:40.366Z,100584.94
2023-05-04T18:12:03.838Z,100584.94
2023-05-04T18:13:06.732Z,100574.22
2023-05-04T18:15:33.373Z,100402.53
2023-05-04T18:17:03.830Z,100402.53
2023-05-04T18:17:59.822Z,100473.69
2023-05-04T18:20:26.516Z,100565.84
2023-05-04T18:22:03.831Z,100565.84
2023-05-04T18:22:52.883Z,100555.50
2023-05-04T18:25:19.207Z,100558.19
2023-05-04T18:27:03.818Z,100558.19
2023-05-04T18:27:45.681Z,100520.41
2023-05-04T18:30:12.259Z,100500.53
2023-05-04T18:32:03.927Z,100500.53
2023-05-04T18:32:38.927Z,100517.22
2023-05-04T18:35:05.722Z,100491.09
2023-05-04T18:37:03.824Z,100491.09
2023-05-04T18:37:32.345Z,100563.38
2023-05-04T18:39:59.254Z,100480.28
2023-05-04T18:42:03.817Z,100480.28
2023-05-04T18:42:26.012Z,100526.25
2023-05-04T18:44:53.200Z,100554.97
2023-05-04T18:47:03.925Z,100554.97
2023-05-04T18:47:19.992Z,100513.44
2023-05-04T18:49:51.108Z,100542.06